sensor_id;sensor_type;location;lat;lon;timestamp;P1;durP1;ratioP1;P2;durP2;ratioP2
4806;SDS011;2417;52.482;13.432;2023-12-20T00:01:39;27.80;;;13.50;;
4806;SDS011;2417;52.482;13.432;2023-12-20T00:04:07;35.87;;;17.73;;
4806;SDS011;2417;52.482;13.432;2023-12-20T00:06:36;26.67;;;13.50;;
4806;SDS011;2417;52.482;13.432;2023-12-20T00:09:04;26.13;;;12.97;;
4806;SDS011;2417;52.482;13.432;2023-12-20T00:11:32;26.57;;;13.10;;
4806;SDS011;2417;52.482;13.432;2023-12-20T00:14:00;24.13;;;12.80;;
4806;SDS011;2417;52.482;13.432;2023-12-20T00:16:28;27.03;;;13.80;;
4806;SDS011;2417;52.482;13.432;2023-12-20T00:18:59;29.93;;;14.10;;
4806;SDS011;2417;52.482;13.432;2023-12-20T00:21:28;29.80;;;13.30;;
4806;SDS011;2417;52.482;13.432;2023-12-20T00:23:56;28.50;;;13.60;;
4806;SDS011;2417;52.482;13.432;2023-12-20T00:26:23;26.83;;;13.07;;
4806;SDS011;2417;52.482;13.432;2023-12-20T00:28:52;26.30;;;12.27;;
4806;SDS011;2417;52.482;13.432;2023-12-20T00:31:20;27.23;;;13.40;;
4806;SDS011;2417;52.482;13.432;2023-12-20T00:33:49;28.23;;;11.67;;
4806;SDS011;2417;52.482;13.432;2023-12-20T00:36:18;28.10;;;12.90;;
4806;SDS011;2417;52.482;13.432;2023-12-20T00:38:46;26.23;;;14.37;;
4806;SDS011;2417;52.482;13.432;2023-12-20T00:41:14;27.80;;;12.50;;
4806;SDS011;2417;52.482;13.432;2023-12-20T00:43:42;24.77;;;11.73;;
4806;SDS011;2417;52.482;13.432;2023-12-20T00:46:10;27.70;;;12.10;;
4806;SDS011;2417;52.482;13.432;2023-12-20T00:48:39;30.50;;;12.07;;
4806;SDS011;2417;52.482;13.432;2023-12-20T00:51:09;25.00;;;12.63;;
4806;SDS011;2417;52.482;13.432;2023-12-20T00:53:38;23.70;;;11.97;;
4806;SDS011;2417;52.482;13.432;2023-12-20T00:56:06;23.27;;;11.03;;
4806;SDS011;2417;52.482;13.432;2023-12-20T00:58:34;22.13;;;12.20;;
4806;SDS011;2417;52.482;13.432;2023-12-20T01:01:02;21.43;;;11.07;;
4806;SDS011;2417;52.482;13.432;2023-12-20T01:03:30;23.83;;;11.50;;
4806;SDS011;2417;52.482;13.432;2023-12-20T01:05:59;22.77;;;11.67;;
4806;SDS011;2417;52.482;13.432;2023-12-20T01:08:26;22.93;;;12.07;;
4806;SDS011;2417;52.482;13.432;2023-12-20T01:10:56;28.77;;;12.93;;
4806;SDS011;2417;52.482;13.432;2023-12-20T01:13:24;22.60;;;10.80;;
4806;SDS011;2417;52.482;13.432;2023-12-20T01:15:52;22.43;;;10.83;;
4806;SDS011;2417;52.482;13.432;2023-12-20T01:18:20;24.63;;;10.90;;
4806;SDS011;2417;52.482;13.432;2023-12-20T01:20:48;75.87;;;33.07;;
4806;SDS011;2417;52.482;13.432;2023-12-20T01:23:16;27.67;;;13.20;;
4806;SDS011;2417;52.482;13.432;2023-12-20T01:25:44;24.83;;;12.17;;
4806;SDS011;2417;52.482;13.432;2023-12-20T01:28:14;25.63;;;12.60;;
4806;SDS011;2417;52.482;13.432;2023-12-20T01:30:42;20.63;;;11.30;;
4806;SDS011;2417;52.482;13.432;2023-12-20T01:33:10;26.43;;;10.87;;
4806;SDS011;2417;52.482;13.432;2023-12-20T01:35:38;22.63;;;11.33;;
4806;SDS011;2417;52.482;13.432;2023-12-20T01:38:06;24.67;;;11.47;;
4806;SDS011;2417;52.482;13.432;2023-12-20T01:40:34;23.90;;;11.80;;
4806;SDS011;2417;52.482;13.432;2023-12-20T01:43:02;21.70;;;11.10;;
4806;SDS011;2417;52.482;13.432;2023-12-20T01:45:34;18.60;;;9.43;;
4806;SDS011;2417;52.482;13.432;2023-12-20T01:48:02;22.90;;;11.20;;
4806;SDS011;2417;52.482;13.432;2023-12-20T01:50:31;21.63;;;11.17;;
4806;SDS011;2417;52.482;13.432;2023-12-20T01:53:00;19.17;;;10.00;;
4806;SDS011;2417;52.482;13.432;2023-12-20T01:55:29;19.47;;;10.27;;
4806;SDS011;2417;52.482;13.432;2023-12-20T01:57:59;25.30;;;12.03;;
4806;SDS011;2417;52.482;13.432;2023-12-20T02:00:27;29.80;;;12.20;;
4806;SDS011;2417;52.482;13.432;2023-12-20T02:02:57;21.67;;;10.00;;
4806;SDS011;2417;52.482;13.432;2023-12-20T02:05:30;17.40;;;9.30;;
4806;SDS011;2417;52.482;13.432;2023-12-20T02:07:59;21.40;;;9.70;;
4806;SDS011;2417;52.482;13.432;2023-12-20T02:10:29;16.80;;;9.40;;
4806;SDS011;2417;52.482;13.432;2023-12-20T02:12:57;18.43;;;9.80;;
4806;SDS011;2417;52.482;13.432;2023-12-20T02:15:25;24.43;;;10.97;;
4806;SDS011;2417;52.482;13.432;2023-12-20T02:17:53;23.20;;;11.07;;
4806;SDS011;2417;52.482;13.432;2023-12-20T02:20:23;23.33;;;9.83;;
4806;SDS011;2417;52.482;13.432;2023-12-20T02:22:52;23.97;;;10.87;;
4806;SDS011;2417;52.482;13.432;2023-12-20T02:25:20;18.97;;;8.90;;
4806;SDS011;2417;52.482;13.432;2023-12-20T02:27:48;19.33;;;9.53;;
4806;SDS011;2417;52.482;13.432;2023-12-20T02:30:17;23.20;;;10.07;;
4806;SDS011;2417;52.482;13.432;2023-12-20T02:32:45;20.03;;;9.77;;
4806;SDS011;2417;52.482;13.432;2023-12-20T02:35:13;32.93;;;9.33;;
4806;SDS011;2417;52.482;13.432;2023-12-20T02:37:41;21.63;;;10.57;;
4806;SDS011;2417;52.482;13.432;2023-12-20T02:40:11;18.60;;;9.73;;
4806;SDS011;2417;52.482;13.432;2023-12-20T02:42:39;19.37;;;9.27;;
4806;SDS011;2417;52.482;13.432;2023-12-20T02:45:07;19.00;;;9.10;;
4806;SDS011;2417;52.482;13.432;2023-12-20T02:47:35;21.07;;;9.47;;
4806;SDS011;2417;52.482;13.432;2023-12-20T02:50:03;23.30;;;10.63;;
4806;SDS011;2417;52.482;13.432;2023-12-20T02:52:32;19.87;;;10.30;;
4806;SDS011;2417;52.482;13.432;2023-12-20T02:55:00;27.37;;;12.47;;
4806;SDS011;2417;52.482;13.432;2023-12-20T02:57:29;28.10;;;11.80;;
4806;SDS011;2417;52.482;13.432;2023-12-20T02:59:58;28.83;;;11.40;;
4806;SDS011;2417;52.482;13.432;2023-12-20T03:02:26;32.47;;;11.70;;
4806;SDS011;2417;52.482;13.432;2023-12-20T03:04:54;29.27;;;12.23;;
4806;SDS011;2417;52.482;13.432;2023-12-20T03:07:23;22.90;;;11.00;;
4806;SDS011;2417;52.482;13.432;2023-12-20T03:09:51;26.53;;;11.93;;
4806;SDS011;2417;52.482;13.432;2023-12-20T03:12:41;29.03;;;10.90;;
4806;SDS011;2417;52.482;13.432;2023-12-20T03:15:09;37.47;;;11.57;;
4806;SDS011;2417;52.482;13.432;2023-12-20T03:17:37;32.10;;;13.40;;
4806;SDS011;2417;52.482;13.432;2023-12-20T03:20:06;27.23;;;11.20;;
4806;SDS011;2417;52.482;13.432;2023-12-20T03:22:34;31.27;;;12.00;;
4806;SDS011;2417;52.482;13.432;2023-12-20T03:25:02;29.60;;;10.67;;
4806;SDS011;2417;52.482;13.432;2023-12-20T03:27:30;24.83;;;10.17;;
4806;SDS011;2417;52.482;13.432;2023-12-20T03:30:01;27.53;;;10.37;;
4806;SDS011;2417;52.482;13.432;2023-12-20T03:32:29;28.63;;;10.73;;
4806;SDS011;2417;52.482;13.432;2023-12-20T03:34:57;26.27;;;10.17;;
4806;SDS011;2417;52.482;13.432;2023-12-20T03:37:26;29.20;;;10.33;;
4806;SDS011;2417;52.482;13.432;2023-12-20T03:39:54;24.97;;;8.93;;
4806;SDS011;2417;52.482;13.432;2023-12-20T03:42:22;21.00;;;7.97;;
4806;SDS011;2417;52.482;13.432;2023-12-20T03:44:49;23.37;;;9.10;;
4806;SDS011;2417;52.482;13.432;2023-12-20T03:47:19;23.80;;;8.47;;
4806;SDS011;2417;52.482;13.432;2023-12-20T03:49:47;25.97;;;10.30;;
4806;SDS011;2417;52.482;13.432;2023-12-20T03:52:15;23.50;;;7.53;;
4806;SDS011;2417;52.482;13.432;2023-12-20T03:54:46;27.17;;;8.33;;
4806;SDS011;2417;52.482;13.432;2023-12-20T03:57:15;16.80;;;6.60;;
4806;SDS011;2417;52.482;13.432;2023-12-20T03:59:43;20.33;;;6.03;;
4806;SDS011;2417;52.482;13.432;2023-12-20T04:02:11;18.93;;;5.80;;
4806;SDS011;2417;52.482;13.432;2023-12-20T04:04:40;33.93;;;7.50;;
4806;SDS011;2417;52.482;13.432;2023-12-20T04:07:08;22.23;;;5.40;;
4806;SDS011;2417;52.482;13.432;2023-12-20T04:09:36;23.97;;;6.00;;
4806;SDS011;2417;52.482;13.432;2023-12-20T04:12:05;19.30;;;6.67;;
4806;SDS011;2417;52.482;13.432;2023-12-20T04:14:33;19.50;;;4.53;;
4806;SDS011;2417;52.482;13.432;2023-12-20T04:17:01;19.73;;;4.97;;
4806;SDS011;2417;52.482;13.432;2023-12-20T04:19:28;18.07;;;4.80;;
4806;SDS011;2417;52.482;13.432;2023-12-20T04:21:58;24.60;;;4.70;;
4806;SDS011;2417;52.482;13.432;2023-12-20T04:24:26;21.97;;;4.90;;
4806;SDS011;2417;52.482;13.432;2023-12-20T04:26:54;15.83;;;5.10;;
4806;SDS011;2417;52.482;13.432;2023-12-20T04:29:22;19.17;;;5.30;;
4806;SDS011;2417;52.482;13.432;2023-12-20T04:31:50;11.53;;;4.60;;
4806;SDS011;2417;52.482;13.432;2023-12-20T04:34:18;25.83;;;5.40;;
4806;SDS011;2417;52.482;13.432;2023-12-20T04:36:46;17.40;;;4.97;;
4806;SDS011;2417;52.482;13.432;2023-12-20T04:39:15;18.03;;;5.33;;
4806;SDS011;2417;52.482;13.432;2023-12-20T04:41:43;13.23;;;4.60;;
4806;SDS011;2417;52.482;13.432;2023-12-20T04:44:11;22.30;;;4.97;;
4806;SDS011;2417;52.482;13.432;2023-12-20T04:46:39;22.07;;;3.80;;
4806;SDS011;2417;52.482;13.432;2023-12-20T04:49:07;17.53;;;4.70;;
4806;SDS011;2417;52.482;13.432;2023-12-20T04:51:35;20.30;;;4.40;;
4806;SDS011;2417;52.482;13.432;2023-12-20T04:54:04;22.37;;;5.10;;
4806;SDS011;2417;52.482;13.432;2023-12-20T04:56:34;26.87;;;4.40;;
4806;SDS011;2417;52.482;13.432;2023-12-20T04:59:01;26.50;;;5.20;;
4806;SDS011;2417;52.482;13.432;2023-12-20T05:01:29;21.30;;;5.30;;
4806;SDS011;2417;52.482;13.432;2023-12-20T05:03:59;53.40;;;5.10;;
4806;SDS011;2417;52.482;13.432;2023-12-20T05:06:27;14.93;;;4.77;;
4806;SDS011;2417;52.482;13.432;2023-12-20T05:08:55;14.00;;;4.97;;
4806;SDS011;2417;52.482;13.432;2023-12-20T05:11:23;16.97;;;4.53;;
4806;SDS011;2417;52.482;13.432;2023-12-20T05:13:52;24.03;;;6.30;;
4806;SDS011;2417;52.482;13.432;2023-12-20T05:16:21;12.00;;;3.93;;
4806;SDS011;2417;52.482;13.432;2023-12-20T05:18:48;30.17;;;4.83;;
4806;SDS011;2417;52.482;13.432;2023-12-20T05:21:20;24.20;;;5.50;;
4806;SDS011;2417;52.482;13.432;2023-12-20T05:23:47;16.07;;;4.87;;
4806;SDS011;2417;52.482;13.432;2023-12-20T05:26:16;10.70;;;4.10;;
4806;SDS011;2417;52.482;13.432;2023-12-20T05:28:43;15.50;;;4.30;;
4806;SDS011;2417;52.482;13.432;2023-12-20T05:31:13;24.87;;;4.23;;
4806;SDS011;2417;52.482;13.432;2023-12-20T05:33:41;18.97;;;3.97;;
4806;SDS011;2417;52.482;13.432;2023-12-20T05:36:10;25.10;;;3.70;;
4806;SDS011;2417;52.482;13.432;2023-12-20T05:38:40;19.63;;;4.10;;
4806;SDS011;2417;52.482;13.432;2023-12-20T05:41:08;12.33;;;3.70;;
4806;SDS011;2417;52.482;13.432;2023-12-20T05:43:36;11.20;;;3.50;;
4806;SDS011;2417;52.482;13.432;2023-12-20T05:46:04;13.50;;;3.60;;
4806;SDS011;2417;52.482;13.432;2023-12-20T05:48:34;12.47;;;3.23;;
4806;SDS011;2417;52.482;13.432;2023-12-20T05:51:03;14.30;;;3.77;;
4806;SDS011;2417;52.482;13.432;2023-12-20T05:53:31;12.60;;;3.43;;
4806;SDS011;2417;52.482;13.432;2023-12-20T05:55:59;25.30;;;4.20;;
4806;SDS011;2417;52.482;13.432;2023-12-20T05:58:26;22.03;;;5.67;;
4806;SDS011;2417;52.482;13.432;2023-12-20T06:00:55;15.00;;;4.23;;
4806;SDS011;2417;52.482;13.432;2023-12-20T06:03:24;16.63;;;4.70;;
4806;SDS011;2417;52.482;13.432;2023-12-20T06:05:53;20.93;;;5.40;;
4806;SDS011;2417;52.482;13.432;2023-12-20T06:08:38;18.20;;;4.10;;
4806;SDS011;2417;52.482;13.432;2023-12-20T06:11:06;18.90;;;4.50;;
4806;SDS011;2417;52.482;13.432;2023-12-20T06:13:35;13.27;;;3.47;;
4806;SDS011;2417;52.482;13.432;2023-12-20T06:16:04;21.87;;;4.50;;
4806;SDS011;2417;52.482;13.432;2023-12-20T06:18:33;21.43;;;5.97;;
4806;SDS011;2417;52.482;13.432;2023-12-20T06:21:03;22.60;;;4.33;;
4806;SDS011;2417;52.482;13.432;2023-12-20T06:23:31;20.50;;;4.40;;
4806;SDS011;2417;52.482;13.432;2023-12-20T06:25:59;19.53;;;4.50;;
4806;SDS011;2417;52.482;13.432;2023-12-20T06:28:27;17.53;;;5.30;;
4806;SDS011;2417;52.482;13.432;2023-12-20T06:30:55;26.50;;;4.60;;
4806;SDS011;2417;52.482;13.432;2023-12-20T06:33:24;15.80;;;5.20;;
4806;SDS011;2417;52.482;13.432;2023-12-20T06:35:52;27.80;;;4.93;;
4806;SDS011;2417;52.482;13.432;2023-12-20T06:38:21;15.83;;;4.93;;
4806;SDS011;2417;52.482;13.432;2023-12-20T06:40:49;18.07;;;4.20;;
4806;SDS011;2417;52.482;13.432;2023-12-20T06:43:17;19.30;;;5.30;;
4806;SDS011;2417;52.482;13.432;2023-12-20T06:46:04;16.40;;;4.27;;
4806;SDS011;2417;52.482;13.432;2023-12-20T06:48:32;14.63;;;4.67;;
4806;SDS011;2417;52.482;13.432;2023-12-20T06:51:00;23.80;;;4.70;;
4806;SDS011;2417;52.482;13.432;2023-12-20T06:53:30;17.37;;;4.80;;
4806;SDS011;2417;52.482;13.432;2023-12-20T06:55:57;26.73;;;5.47;;
4806;SDS011;2417;52.482;13.432;2023-12-20T06:58:25;18.27;;;5.77;;
4806;SDS011;2417;52.482;13.432;2023-12-20T07:00:53;19.30;;;5.20;;
4806;SDS011;2417;52.482;13.432;2023-12-20T07:03:21;18.50;;;5.37;;
4806;SDS011;2417;52.482;13.432;2023-12-20T07:05:49;21.47;;;5.40;;
4806;SDS011;2417;52.482;13.432;2023-12-20T07:08:17;14.10;;;4.43;;
4806;SDS011;2417;52.482;13.432;2023-12-20T07:10:47;19.73;;;5.00;;
4806;SDS011;2417;52.482;13.432;2023-12-20T07:13:15;20.67;;;4.93;;
4806;SDS011;2417;52.482;13.432;2023-12-20T07:15:43;18.13;;;4.93;;
4806;SDS011;2417;52.482;13.432;2023-12-20T07:18:11;24.93;;;6.23;;
4806;SDS011;2417;52.482;13.432;2023-12-20T07:20:38;15.13;;;6.10;;
4806;SDS011;2417;52.482;13.432;2023-12-20T07:23:06;27.63;;;5.83;;
4806;SDS011;2417;52.482;13.432;2023-12-20T07:25:33;26.53;;;6.07;;
4806;SDS011;2417;52.482;13.432;2023-12-20T07:28:03;18.33;;;5.60;;
4806;SDS011;2417;52.482;13.432;2023-12-20T07:30:32;23.97;;;5.10;;
4806;SDS011;2417;52.482;13.432;2023-12-20T07:33:00;22.43;;;5.50;;
4806;SDS011;2417;52.482;13.432;2023-12-20T07:35:29;21.30;;;6.27;;
4806;SDS011;2417;52.482;13.432;2023-12-20T07:37:57;21.03;;;5.47;;
4806;SDS011;2417;52.482;13.432;2023-12-20T07:40:28;25.67;;;7.90;;
4806;SDS011;2417;52.482;13.432;2023-12-20T07:42:56;32.50;;;9.20;;
4806;SDS011;2417;52.482;13.432;2023-12-20T07:45:26;20.97;;;7.00;;
4806;SDS011;2417;52.482;13.432;2023-12-20T07:47:54;22.20;;;6.00;;
4806;SDS011;2417;52.482;13.432;2023-12-20T07:50:22;30.60;;;6.07;;
4806;SDS011;2417;52.482;13.432;2023-12-20T07:52:50;17.37;;;5.43;;
4806;SDS011;2417;52.482;13.432;2023-12-20T07:55:18;24.90;;;5.60;;
4806;SDS011;2417;52.482;13.432;2023-12-20T07:57:46;24.50;;;5.10;;
4806;SDS011;2417;52.482;13.432;2023-12-20T08:00:14;21.97;;;4.93;;
4806;SDS011;2417;52.482;13.432;2023-12-20T08:02:43;16.17;;;6.07;;
4806;SDS011;2417;52.482;13.432;2023-12-20T08:05:11;19.00;;;4.87;;
4806;SDS011;2417;52.482;13.432;2023-12-20T08:07:42;20.60;;;5.23;;
4806;SDS011;2417;52.482;13.432;2023-12-20T08:10:10;21.43;;;4.73;;
4806;SDS011;2417;52.482;13.432;2023-12-20T08:12:39;22.03;;;5.50;;
4806;SDS011;2417;52.482;13.432;2023-12-20T08:15:08;10.87;;;3.83;;
4806;SDS011;2417;52.482;13.432;2023-12-20T08:17:36;19.93;;;5.07;;
4806;SDS011;2417;52.482;13.432;2023-12-20T08:20:06;20.10;;;5.13;;
4806;SDS011;2417;52.482;13.432;2023-12-20T08:22:34;21.47;;;4.30;;
4806;SDS011;2417;52.482;13.432;2023-12-20T08:25:02;19.37;;;5.03;;
4806;SDS011;2417;52.482;13.432;2023-12-20T08:27:30;13.90;;;4.40;;
4806;SDS011;2417;52.482;13.432;2023-12-20T08:29:58;21.73;;;4.37;;
4806;SDS011;2417;52.482;13.432;2023-12-20T08:32:27;12.70;;;4.60;;
4806;SDS011;2417;52.482;13.432;2023-12-20T08:34:54;26.50;;;5.00;;
4806;SDS011;2417;52.482;13.432;2023-12-20T08:37:24;19.47;;;4.67;;
4806;SDS011;2417;52.482;13.432;2023-12-20T08:39:53;17.90;;;5.30;;
4806;SDS011;2417;52.482;13.432;2023-12-20T08:42:20;20.43;;;4.70;;
4806;SDS011;2417;52.482;13.432;2023-12-20T08:44:48;19.97;;;6.03;;
4806;SDS011;2417;52.482;13.432;2023-12-20T08:47:17;21.07;;;7.57;;
4806;SDS011;2417;52.482;13.432;2023-12-20T08:49:46;25.73;;;5.80;;
4806;SDS011;2417;52.482;13.432;2023-12-20T08:52:14;18.07;;;5.50;;
4806;SDS011;2417;52.482;13.432;2023-12-20T08:54:43;16.43;;;4.20;;
4806;SDS011;2417;52.482;13.432;2023-12-20T08:57:11;16.70;;;4.90;;
4806;SDS011;2417;52.482;13.432;2023-12-20T08:59:40;15.83;;;4.20;;
4806;SDS011;2417;52.482;13.432;2023-12-20T09:02:08;17.87;;;4.07;;
4806;SDS011;2417;52.482;13.432;2023-12-20T09:04:36;13.10;;;3.93;;
4806;SDS011;2417;52.482;13.432;2023-12-20T09:07:04;14.73;;;4.10;;
4806;SDS011;2417;52.482;13.432;2023-12-20T09:09:32;13.53;;;4.07;;
4806;SDS011;2417;52.482;13.432;2023-12-20T09:12:01;14.93;;;4.43;;
4806;SDS011;2417;52.482;13.432;2023-12-20T09:14:29;20.90;;;4.73;;
4806;SDS011;2417;52.482;13.432;2023-12-20T09:16:59;12.90;;;4.90;;
4806;SDS011;2417;52.482;13.432;2023-12-20T09:19:27;30.77;;;5.13;;
4806;SDS011;2417;52.482;13.432;2023-12-20T09:21:56;21.80;;;4.60;;
4806;SDS011;2417;52.482;13.432;2023-12-20T09:24:24;14.70;;;4.70;;
4806;SDS011;2417;52.482;13.432;2023-12-20T09:26:52;23.27;;;4.20;;
4806;SDS011;2417;52.482;13.432;2023-12-20T09:29:21;9.23;;;3.60;;
4806;SDS011;2417;52.482;13.432;2023-12-20T09:31:49;16.80;;;4.40;;
4806;SDS011;2417;52.482;13.432;2023-12-20T09:34:17;17.97;;;4.10;;
4806;SDS011;2417;52.482;13.432;2023-12-20T09:36:46;16.53;;;3.80;;
4806;SDS011;2417;52.482;13.432;2023-12-20T09:39:15;16.23;;;4.47;;
4806;SDS011;2417;52.482;13.432;2023-12-20T09:41:46;10.50;;;3.53;;
4806;SDS011;2417;52.482;13.432;2023-12-20T09:44:17;16.13;;;4.30;;
4806;SDS011;2417;52.482;13.432;2023-12-20T09:46:48;12.73;;;3.80;;
4806;SDS011;2417;52.482;13.432;2023-12-20T09:49:17;18.33;;;4.63;;
4806;SDS011;2417;52.482;13.432;2023-12-20T09:51:46;11.70;;;3.93;;
4806;SDS011;2417;52.482;13.432;2023-12-20T09:54:14;23.67;;;5.07;;
4806;SDS011;2417;52.482;13.432;2023-12-20T09:56:44;15.73;;;4.40;;
4806;SDS011;2417;52.482;13.432;2023-12-20T09:59:14;17.43;;;4.10;;
4806;SDS011;2417;52.482;13.432;2023-12-20T10:01:42;13.83;;;4.40;;
4806;SDS011;2417;52.482;13.432;2023-12-20T10:04:12;13.03;;;4.57;;
4806;SDS011;2417;52.482;13.432;2023-12-20T10:06:55;20.73;;;5.50;;
4806;SDS011;2417;52.482;13.432;2023-12-20T10:09:24;17.13;;;4.33;;
4806;SDS011;2417;52.482;13.432;2023-12-20T10:11:54;25.43;;;5.00;;
4806;SDS011;2417;52.482;13.432;2023-12-20T10:14:22;19.27;;;4.67;;
4806;SDS011;2417;52.482;13.432;2023-12-20T10:16:51;21.90;;;4.00;;
4806;SDS011;2417;52.482;13.432;2023-12-20T10:19:22;14.90;;;3.70;;
4806;SDS011;2417;52.482;13.432;2023-12-20T10:21:50;16.60;;;4.27;;
4806;SDS011;2417;52.482;13.432;2023-12-20T10:24:19;22.70;;;4.23;;
4806;SDS011;2417;52.482;13.432;2023-12-20T10:26:49;16.10;;;4.63;;
4806;SDS011;2417;52.482;13.432;2023-12-20T10:29:28;17.67;;;5.50;;
4806;SDS011;2417;52.482;13.432;2023-12-20T10:32:05;22.67;;;4.40;;
4806;SDS011;2417;52.482;13.432;2023-12-20T10:34:50;16.50;;;3.90;;
4806;SDS011;2417;52.482;13.432;2023-12-20T10:37:19;16.80;;;3.80;;
4806;SDS011;2417;52.482;13.432;2023-12-20T10:39:49;12.40;;;3.77;;
4806;SDS011;2417;52.482;13.432;2023-12-20T10:42:18;13.33;;;3.67;;
4806;SDS011;2417;52.482;13.432;2023-12-20T10:44:48;13.27;;;3.70;;
4806;SDS011;2417;52.482;13.432;2023-12-20T10:47:16;13.50;;;3.60;;
4806;SDS011;2417;52.482;13.432;2023-12-20T10:49:44;7.20;;;3.13;;
4806;SDS011;2417;52.482;13.432;2023-12-20T10:52:14;25.17;;;4.00;;
4806;SDS011;2417;52.482;13.432;2023-12-20T10:54:44;13.20;;;3.70;;
4806;SDS011;2417;52.482;13.432;2023-12-20T10:57:13;13.90;;;3.70;;
4806;SDS011;2417;52.482;13.432;2023-12-20T10:59:41;17.23;;;3.57;;
4806;SDS011;2417;52.482;13.432;2023-12-20T11:02:16;16.73;;;4.10;;
4806;SDS011;2417;52.482;13.432;2023-12-20T11:04:59;16.03;;;3.47;;
4806;SDS011;2417;52.482;13.432;2023-12-20T11:07:36;9.23;;;3.00;;
4806;SDS011;2417;52.482;13.432;2023-12-20T11:10:10;19.93;;;4.23;;
4806;SDS011;2417;52.482;13.432;2023-12-20T11:12:41;12.27;;;2.90;;
4806;SDS011;2417;52.482;13.432;2023-12-20T11:15:12;16.83;;;4.13;;
4806;SDS011;2417;52.482;13.432;2023-12-20T11:17:40;9.57;;;3.57;;
4806;SDS011;2417;52.482;13.432;2023-12-20T11:20:09;10.23;;;3.60;;
4806;SDS011;2417;52.482;13.432;2023-12-20T11:22:51;14.67;;;4.30;;
4806;SDS011;2417;52.482;13.432;2023-12-20T11:25:19;14.27;;;3.77;;
4806;SDS011;2417;52.482;13.432;2023-12-20T11:30:40;16.40;;;3.83;;
4806;SDS011;2417;52.482;13.432;2023-12-20T11:33:08;13.90;;;4.43;;
4806;SDS011;2417;52.482;13.432;2023-12-20T11:35:36;17.60;;;3.97;;
4806;SDS011;2417;52.482;13.432;2023-12-20T11:38:08;14.30;;;4.70;;
4806;SDS011;2417;52.482;13.432;2023-12-20T11:40:37;14.30;;;4.47;;
4806;SDS011;2417;52.482;13.432;2023-12-20T11:43:05;11.07;;;3.40;;
4806;SDS011;2417;52.482;13.432;2023-12-20T11:45:33;14.30;;;4.00;;
4806;SDS011;2417;52.482;13.432;2023-12-20T11:48:02;14.80;;;3.83;;
4806;SDS011;2417;52.482;13.432;2023-12-20T11:50:30;13.10;;;4.37;;
4806;SDS011;2417;52.482;13.432;2023-12-20T11:52:59;22.33;;;4.60;;
4806;SDS011;2417;52.482;13.432;2023-12-20T11:55:28;14.87;;;4.10;;
4806;SDS011;2417;52.482;13.432;2023-12-20T11:57:56;16.80;;;3.53;;
4806;SDS011;2417;52.482;13.432;2023-12-20T12:00:24;17.73;;;4.10;;
4806;SDS011;2417;52.482;13.432;2023-12-20T12:02:56;15.20;;;3.93;;
4806;SDS011;2417;52.482;13.432;2023-12-20T12:05:24;8.87;;;3.30;;
4806;SDS011;2417;52.482;13.432;2023-12-20T12:07:53;17.30;;;3.90;;
4806;SDS011;2417;52.482;13.432;2023-12-20T12:10:21;16.90;;;4.40;;
4806;SDS011;2417;52.482;13.432;2023-12-20T12:12:50;14.67;;;4.00;;
4806;SDS011;2417;52.482;13.432;2023-12-20T12:15:19;17.47;;;4.00;;
4806;SDS011;2417;52.482;13.432;2023-12-20T12:17:52;22.67;;;4.20;;
4806;SDS011;2417;52.482;13.432;2023-12-20T12:20:20;24.40;;;6.13;;
4806;SDS011;2417;52.482;13.432;2023-12-20T12:22:57;17.20;;;3.93;;
4806;SDS011;2417;52.482;13.432;2023-12-20T12:25:25;13.50;;;3.83;;
4806;SDS011;2417;52.482;13.432;2023-12-20T12:27:55;15.23;;;4.50;;
4806;SDS011;2417;52.482;13.432;2023-12-20T12:30:23;18.80;;;3.77;;
4806;SDS011;2417;52.482;13.432;2023-12-20T12:32:56;12.70;;;3.80;;
4806;SDS011;2417;52.482;13.432;2023-12-20T12:35:25;18.03;;;4.10;;
4806;SDS011;2417;52.482;13.432;2023-12-20T12:37:53;11.80;;;3.90;;
4806;SDS011;2417;52.482;13.432;2023-12-20T12:40:21;13.40;;;4.20;;
4806;SDS011;2417;52.482;13.432;2023-12-20T12:42:49;15.17;;;3.90;;
4806;SDS011;2417;52.482;13.432;2023-12-20T12:45:18;20.87;;;4.37;;
4806;SDS011;2417;52.482;13.432;2023-12-20T12:47:46;10.73;;;4.00;;
4806;SDS011;2417;52.482;13.432;2023-12-20T12:50:15;11.00;;;3.50;;
4806;SDS011;2417;52.482;13.432;2023-12-20T12:52:43;16.17;;;3.73;;
4806;SDS011;2417;52.482;13.432;2023-12-20T12:55:11;13.10;;;4.07;;
4806;SDS011;2417;52.482;13.432;2023-12-20T12:57:39;12.70;;;3.87;;
4806;SDS011;2417;52.482;13.432;2023-12-20T13:00:08;25.43;;;5.00;;
4806;SDS011;2417;52.482;13.432;2023-12-20T13:02:38;20.37;;;5.60;;
4806;SDS011;2417;52.482;13.432;2023-12-20T13:05:08;23.03;;;6.07;;
4806;SDS011;2417;52.482;13.432;2023-12-20T13:07:36;15.83;;;5.60;;
4806;SDS011;2417;52.482;13.432;2023-12-20T13:10:06;20.67;;;5.63;;
4806;SDS011;2417;52.482;13.432;2023-12-20T13:12:34;18.73;;;5.47;;
4806;SDS011;2417;52.482;13.432;2023-12-20T13:15:02;22.43;;;7.07;;
4806;SDS011;2417;52.482;13.432;2023-12-20T13:17:30;44.37;;;6.10;;
4806;SDS011;2417;52.482;13.432;2023-12-20T13:20:00;10.40;;;4.50;;
4806;SDS011;2417;52.482;13.432;2023-12-20T13:22:28;18.40;;;5.27;;
4806;SDS011;2417;52.482;13.432;2023-12-20T13:24:57;20.63;;;6.07;;
4806;SDS011;2417;52.482;13.432;2023-12-20T13:27:24;9.40;;;4.53;;
4806;SDS011;2417;52.482;13.432;2023-12-20T13:29:52;17.63;;;4.90;;
4806;SDS011;2417;52.482;13.432;2023-12-20T13:32:22;28.33;;;5.00;;
4806;SDS011;2417;52.482;13.432;2023-12-20T13:34:51;17.83;;;5.43;;
4806;SDS011;2417;52.482;13.432;2023-12-20T13:37:20;20.87;;;4.90;;
4806;SDS011;2417;52.482;13.432;2023-12-20T13:39:49;7.77;;;3.70;;
4806;SDS011;2417;52.482;13.432;2023-12-20T13:42:17;4.67;;;2.67;;
4806;SDS011;2417;52.482;13.432;2023-12-20T13:44:48;5.67;;;3.57;;
4806;SDS011;2417;52.482;13.432;2023-12-20T13:47:15;4.70;;;2.20;;
4806;SDS011;2417;52.482;13.432;2023-12-20T13:49:43;6.53;;;2.60;;
4806;SDS011;2417;52.482;13.432;2023-12-20T13:52:12;2.70;;;1.93;;
4806;SDS011;2417;52.482;13.432;2023-12-20T13:54:41;7.87;;;2.00;;
4806;SDS011;2417;52.482;13.432;2023-12-20T13:57:09;3.60;;;2.00;;
4806;SDS011;2417;52.482;13.432;2023-12-20T13:59:52;6.30;;;2.30;;
4806;SDS011;2417;52.482;13.432;2023-12-20T14:02:20;8.83;;;3.50;;
4806;SDS011;2417;52.482;13.432;2023-12-20T14:04:48;7.20;;;3.50;;
4806;SDS011;2417;52.482;13.432;2023-12-20T14:07:16;5.97;;;2.70;;
4806;SDS011;2417;52.482;13.432;2023-12-20T14:09:46;5.97;;;3.23;;
4806;SDS011;2417;52.482;13.432;2023-12-20T14:12:14;9.43;;;3.20;;
4806;SDS011;2417;52.482;13.432;2023-12-20T14:14:42;2.80;;;2.27;;
4806;SDS011;2417;52.482;13.432;2023-12-20T14:17:11;3.23;;;1.67;;
4806;SDS011;2417;52.482;13.432;2023-12-20T14:19:39;6.90;;;2.77;;
4806;SDS011;2417;52.482;13.432;2023-12-20T14:22:07;6.03;;;2.60;;
4806;SDS011;2417;52.482;13.432;2023-12-20T14:24:35;4.40;;;1.83;;
4806;SDS011;2417;52.482;13.432;2023-12-20T14:27:05;3.37;;;2.10;;
4806;SDS011;2417;52.482;13.432;2023-12-20T14:29:33;5.70;;;2.70;;
4806;SDS011;2417;52.482;13.432;2023-12-20T14:32:02;6.67;;;2.50;;
4806;SDS011;2417;52.482;13.432;2023-12-20T14:34:30;3.47;;;2.20;;
4806;SDS011;2417;52.482;13.432;2023-12-20T14:36:58;7.30;;;1.83;;
4806;SDS011;2417;52.482;13.432;2023-12-20T14:39:27;3.67;;;2.33;;
4806;SDS011;2417;52.482;13.432;2023-12-20T14:41:55;4.80;;;2.50;;
4806;SDS011;2417;52.482;13.432;2023-12-20T14:44:24;3.50;;;1.13;;
4806;SDS011;2417;52.482;13.432;2023-12-20T14:46:52;3.67;;;2.07;;
4806;SDS011;2417;52.482;13.432;2023-12-20T14:49:22;7.93;;;1.97;;
4806;SDS011;2417;52.482;13.432;2023-12-20T14:51:48;6.17;;;2.80;;
4806;SDS011;2417;52.482;13.432;2023-12-20T14:54:17;4.60;;;1.50;;
4806;SDS011;2417;52.482;13.432;2023-12-20T14:56:44;7.43;;;1.83;;
4806;SDS011;2417;52.482;13.432;2023-12-20T14:59:12;4.47;;;1.60;;